createdAt,value
2023-04-23T00:00:37.259Z,15.00
2023-04-23T00:03:24.130Z,15.00
2023-04-23T00:06:13.149Z,15.00
2023-04-23T00:09:00.104Z,15.00
2023-04-23T00:11:45.716Z,14.80
2023-04-23T00:14:31.348Z,14.80
2023-04-23T00:17:17.074Z,14.80
2023-04-23T00:20:02.825Z,14.80
2023-04-23T00:22:48.595Z,14.70
2023-04-23T00:25:34.418Z,14.70
2023-04-23T00:28:21.983Z,14.70
2023-04-23T00:31:07.821Z,14.60
2023-04-23T00:33:54.015Z,14.70
2023-04-23T00:36:39.494Z,14.60
2023-04-23T00:39:25.341Z,14.60
2023-04-23T00:42:12.623Z,14.60
2023-04-23T00:44:58.390Z,14.60
2023-04-23T00:47:44.426Z,14.60
2023-04-23T00:50:30.089Z,14.50
2023-04-23T00:53:16.657Z,14.50
2023-04-23T00:56:04.200Z,14.50
2023-04-23T00:58:50.794Z,14.50
2023-04-23T01:01:37.126Z,14.50
2023-04-23T01:04:22.954Z,14.40
2023-04-23T01:07:08.435Z,14.40
2023-04-23T01:09:54.769Z,14.40
2023-04-23T01:12:40.352Z,14.30
2023-04-23T01:15:25.715Z,14.30
2023-04-23T01:18:12.871Z,14.20
2023-04-23T01:20:58.889Z,14.20
2023-04-23T01:23:44.649Z,14.20
2023-04-23T01:26:30.575Z,14.20
2023-04-23T01:29:16.097Z,14.20
2023-04-23T01:32:02.304Z,14.20
2023-04-23T01:34:48.285Z,14.20
2023-04-23T01:37:35.557Z,13.90
2023-04-23T01:40:21.392Z,13.90
2023-04-23T01:43:07.378Z,13.80
2023-04-23T01:45:53.063Z,13.80
2023-04-23T01:48:38.699Z,13.70
2023-04-23T01:51:25.830Z,13.70
2023-04-23T01:54:11.498Z,13.70
2023-04-23T01:56:58.919Z,13.80
2023-04-23T01:59:44.762Z,13.70
2023-04-23T02:02:30.455Z,13.80
2023-04-23T02:05:18.789Z,13.80
2023-04-23T02:08:04.454Z,13.80
2023-04-23T02:10:50.657Z,13.80
2023-04-23T02:13:36.655Z,13.80
2023-04-23T02:16:24.925Z,13.80
2023-04-23T02:19:12.122Z,13.80
2023-04-23T02:21:58.840Z,13.80
2023-04-23T02:24:44.617Z,13.80
2023-04-23T02:27:30.287Z,13.80
2023-04-23T02:30:15.893Z,13.70
2023-04-23T02:33:01.448Z,13.60
2023-04-23T02:35:47.359Z,13.60
2023-04-23T02:38:32.978Z,13.50
2023-04-23T02:41:18.315Z,13.50
2023-04-23T02:44:04.197Z,13.50
2023-04-23T02:46:50.118Z,13.50
2023-04-23T02:49:36.449Z,13.50
2023-04-23T02:52:21.798Z,13.50
2023-04-23T02:55:08.501Z,13.50
2023-04-23T02:57:54.354Z,13.50
2023-04-23T03:00:40.001Z,13.60
2023-04-23T03:03:27.023Z,13.50
2023-04-23T03:06:12.650Z,13.60
2023-04-23T03:08:58.219Z,13.50
2023-04-23T03:11:44.128Z,13.50
2023-04-23T03:14:31.937Z,13.40
2023-04-23T03:17:17.913Z,13.40
2023-04-23T03:20:04.256Z,13.30
2023-04-23T03:22:50.188Z,13.30
2023-04-23T03:25:36.054Z,13.20
2023-04-23T03:28:22.255Z,13.20
2023-04-23T03:31:08.085Z,13.10
2023-04-23T03:33:53.988Z,13.10
2023-04-23T03:36:48.757Z,13.10
2023-04-23T03:39:35.360Z,13.10
2023-04-23T03:42:20.982Z,13.10
2023-04-23T03:45:08.195Z,13.10
2023-04-23T03:47:54.221Z,13.00
2023-04-23T03:50:40.834Z,13.00
2023-04-23T03:53:46.479Z,13.00
2023-04-23T03:56:51.258Z,13.00
2023-04-23T03:59:41.686Z,13.00
2023-04-23T04:02:28.292Z,13.00
2023-04-23T04:05:14.528Z,13.00
2023-04-23T04:08:00.426Z,13.00
2023-04-23T04:10:46.159Z,13.00
2023-04-23T04:13:31.851Z,12.90
2023-04-23T04:16:17.826Z,13.00
2023-04-23T04:19:03.725Z,13.00
2023-04-23T04:21:49.048Z,13.00
2023-04-23T04:24:35.600Z,13.00
2023-04-23T04:27:21.121Z,13.10
2023-04-23T04:30:07.301Z,13.10
2023-04-23T04:32:52.924Z,13.10
2023-04-23T04:35:38.803Z,13.10
2023-04-23T04:38:24.548Z,13.20
2023-04-23T04:41:11.507Z,13.30
2023-04-23T04:43:58.681Z,13.30
2023-04-23T04:46:45.133Z,13.40
2023-04-23T04:49:30.944Z,13.40
2023-04-23T04:52:16.929Z,13.40
2023-04-23T04:55:02.604Z,13.40
2023-04-23T04:57:48.294Z,13.40
2023-04-23T05:00:34.541Z,13.40
2023-04-23T05:03:20.550Z,13.50
2023-04-23T05:06:06.401Z,13.60
2023-04-23T05:08:51.892Z,13.70
2023-04-23T05:11:37.627Z,13.70
2023-04-23T05:14:23.581Z,13.80
2023-04-23T05:17:08.920Z,13.90
2023-04-23T05:19:54.721Z,14.00
2023-04-23T05:22:41.579Z,14.20
2023-04-23T05:25:27.322Z,14.40
2023-04-23T05:28:13.289Z,15.20
2023-04-23T05:30:58.822Z,16.00
2023-04-23T05:33:49.880Z,16.50
2023-04-23T05:36:36.759Z,16.80
2023-04-23T05:39:22.519Z,17.00
2023-04-23T05:42:07.944Z,17.30
2023-04-23T05:44:53.566Z,17.50
2023-04-23T05:47:39.317Z,17.90
2023-04-23T05:50:25.086Z,18.10
2023-04-23T05:53:10.740Z,18.20
2023-04-23T05:55:56.630Z,18.30
2023-04-23T05:58:42.274Z,18.10
2023-04-23T06:01:27.662Z,18.00
2023-04-23T06:04:13.767Z,17.90
2023-04-23T06:06:59.709Z,17.70
2023-04-23T06:09:45.082Z,17.90
2023-04-23T06:12:30.923Z,17.80
2023-04-23T06:15:16.642Z,17.80
2023-04-23T06:18:02.375Z,18.00
2023-04-23T06:20:48.946Z,18.00
2023-04-23T06:23:34.819Z,18.10
2023-04-23T06:26:20.972Z,18.30
2023-04-23T06:29:08.521Z,18.50
2023-04-23T06:32:01.265Z,18.80
2023-04-23T06:34:59.593Z,19.10
2023-04-23T06:37:46.048Z,19.40
2023-04-23T06:40:32.090Z,19.70
2023-04-23T06:43:17.864Z,19.90
2023-04-23T06:46:29.709Z,20.10
2023-04-23T06:49:16.013Z,20.30
2023-04-23T06:52:01.871Z,20.50
2023-04-23T06:54:47.361Z,20.70
2023-04-23T06:57:33.258Z,20.80
2023-04-23T07:00:19.292Z,21.00
2023-04-23T07:03:05.729Z,21.10
2023-04-23T07:05:51.176Z,21.30
2023-04-23T07:08:37.003Z,21.50
2023-04-23T07:11:22.613Z,21.60
2023-04-23T07:14:09.164Z,21.60
2023-04-23T07:16:54.722Z,21.80
2023-04-23T07:19:40.209Z,22.10
2023-04-23T07:22:26.434Z,22.30
2023-04-23T07:25:12.559Z,22.30
2023-04-23T07:27:58.726Z,22.40
2023-04-23T07:30:44.685Z,22.60
2023-04-23T07:33:30.446Z,22.60
2023-04-23T07:36:16.384Z,22.60
2023-04-23T07:39:02.163Z,22.80
2023-04-23T07:41:47.736Z,22.90
2023-04-23T07:44:33.397Z,23.00
2023-04-23T07:47:19.228Z,23.20
2023-04-23T07:50:05.408Z,23.20
2023-04-23T07:52:50.863Z,23.30
2023-04-23T07:55:36.711Z,23.40
2023-04-23T07:58:22.313Z,23.60
2023-04-23T08:01:07.896Z,23.90
2023-04-23T08:03:59.080Z,23.90
2023-04-23T08:06:47.996Z,24.10
2023-04-23T08:09:33.722Z,24.10
2023-04-23T08:12:19.553Z,24.10
2023-04-23T08:15:05.265Z,24.20
2023-04-23T08:17:57.436Z,24.30
2023-04-23T08:20:42.988Z,24.30
2023-04-23T08:23:28.792Z,24.40
2023-04-23T08:26:14.256Z,24.60
2023-04-23T08:29:03.263Z,24.70
2023-04-23T08:31:49.234Z,24.90
2023-04-23T08:34:35.850Z,24.80
2023-04-23T08:37:30.218Z,24.90
2023-04-23T08:40:17.106Z,24.90
2023-04-23T08:43:03.489Z,24.50
2023-04-23T08:45:49.541Z,24.00
2023-04-23T08:48:35.703Z,23.70
2023-04-23T08:51:21.698Z,23.30
2023-04-23T08:54:09.842Z,23.20
2023-04-23T08:56:58.903Z,23.30
2023-04-23T08:59:45.214Z,22.90
2023-04-23T09:02:31.471Z,22.90
2023-04-23T09:05:17.175Z,23.10
2023-04-23T09:08:02.569Z,23.50
2023-04-23T09:10:50.340Z,23.80
2023-04-23T09:13:36.880Z,23.80
2023-04-23T09:16:26.220Z,24.00
2023-04-23T09:19:13.405Z,23.90
2023-04-23T09:22:02.054Z,24.00
2023-04-23T09:24:47.877Z,24.00
2023-04-23T09:27:33.524Z,23.90
2023-04-23T09:30:19.751Z,24.00
2023-04-23T09:33:05.330Z,23.80
2023-04-23T09:35:52.212Z,23.90
2023-04-23T09:38:39.588Z,23.80
2023-04-23T09:41:26.027Z,24.00
2023-04-23T09:44:14.715Z,24.00
2023-04-23T09:47:09.820Z,23.90
2023-04-23T09:49:56.208Z,23.50
2023-04-23T09:52:41.766Z,23.10
2023-04-23T09:55:35.175Z,23.40
2023-04-23T09:58:26.012Z,23.40
2023-04-23T10:01:15.315Z,23.30
2023-04-23T10:04:01.651Z,23.40
2023-04-23T10:06:57.941Z,23.20
2023-04-23T10:09:56.180Z,23.50
2023-04-23T10:12:54.208Z,23.60
2023-04-23T10:15:41.077Z,23.50
2023-04-23T10:18:26.945Z,23.30
2023-04-23T10:21:14.701Z,22.90
2023-04-23T10:24:02.195Z,23.30
2023-04-23T10:26:48.271Z,22.90
2023-04-23T10:29:34.601Z,23.00
2023-04-23T10:32:20.859Z,23.00
2023-04-23T10:35:07.385Z,22.70
2023-04-23T10:37:53.449Z,22.70
2023-04-23T10:40:40.448Z,22.90
2023-04-23T10:43:29.836Z,22.90
2023-04-23T10:46:31.524Z,23.10
2023-04-23T10:49:17.471Z,23.20
2023-04-23T10:54:58.141Z,23.40
2023-04-23T10:58:01.917Z,23.30
2023-04-23T11:00:48.620Z,23.20
2023-04-23T11:03:43.638Z,22.90
2023-04-23T11:06:48.108Z,22.50
2023-04-23T11:09:41.205Z,22.40
2023-04-23T11:12:27.184Z,22.10
2023-04-23T11:15:13.846Z,21.90
2023-04-23T11:18:00.204Z,22.20
2023-04-23T11:20:47.738Z,22.50
2023-04-23T11:23:33.232Z,22.70
2023-04-23T11:26:19.495Z,22.60
2023-04-23T11:29:06.249Z,22.60
2023-04-23T11:34:45.217Z,22.80
2023-04-23T11:37:31.080Z,22.70
2023-04-23T11:40:20.950Z,22.80
2023-04-23T11:43:06.598Z,22.80
2023-04-23T11:45:53.130Z,22.80
2023-04-23T11:48:39.215Z,22.80
2023-04-23T11:51:28.423Z,22.90
2023-04-23T11:54:14.670Z,22.90
2023-04-23T11:57:01.633Z,23.10
2023-04-23T11:59:47.394Z,23.20
2023-04-23T12:02:33.255Z,23.10
2023-04-23T12:05:22.960Z,23.30
2023-04-23T12:08:10.227Z,23.00
2023-04-23T12:11:02.016Z,22.90
2023-04-23T12:13:47.601Z,22.70
2023-04-23T12:16:34.253Z,22.60
2023-04-23T12:19:21.207Z,22.80
2023-04-23T12:22:09.810Z,22.90
2023-04-23T12:24:55.336Z,23.00
2023-04-23T12:27:42.554Z,23.00
2023-04-23T12:30:31.673Z,22.80
2023-04-23T12:33:18.676Z,22.90
2023-04-23T12:36:15.867Z,23.00
2023-04-23T12:39:20.988Z,23.20
2023-04-23T12:42:09.796Z,23.10
2023-04-23T12:44:56.701Z,23.20
2023-04-23T12:47:42.997Z,23.20
2023-04-23T12:50:28.250Z,23.30
2023-04-23T12:53:13.932Z,23.20
2023-04-23T12:55:59.632Z,23.30
2023-04-23T12:58:46.475Z,23.40
2023-04-23T13:01:33.359Z,23.50
2023-04-23T13:04:18.867Z,23.30
2023-04-23T13:07:04.615Z,23.40
2023-04-23T13:09:50.857Z,23.50
2023-04-23T13:12:36.571Z,23.30
2023-04-23T13:15:22.506Z,23.10
2023-04-23T13:18:09.943Z,23.30
2023-04-23T13:20:55.466Z,23.40
2023-04-23T13:23:41.129Z,23.40
2023-04-23T13:26:32.160Z,23.50
2023-04-23T13:29:17.765Z,23.50
2023-04-23T13:32:03.943Z,23.50
2023-04-23T13:34:50.011Z,23.70
2023-04-23T13:37:35.698Z,23.60
2023-04-23T13:40:21.308Z,23.70
2023-04-23T13:43:06.858Z,23.70
2023-04-23T13:45:55.741Z,23.80
2023-04-23T13:48:41.561Z,23.80
2023-04-23T13:54:20.649Z,23.80
2023-04-23T13:57:45.910Z,23.90
2023-04-23T14:00:43.641Z,24.10
2023-04-23T14:03:29.560Z,24.10
2023-04-23T14:06:15.381Z,24.10
2023-04-23T14:09:01.184Z,24.20
2023-04-23T14:11:46.743Z,24.20
2023-04-23T14:14:32.609Z,24.20
2023-04-23T14:17:18.339Z,24.00
2023-04-23T14:20:05.843Z,24.00
2023-04-23T14:22:55.824Z,23.70
2023-04-23T14:25:41.854Z,23.70
2023-04-23T14:28:27.355Z,23.70
2023-04-23T14:31:16.850Z,23.60
2023-04-23T14:34:02.676Z,23.60
2023-04-23T14:36:49.416Z,23.70
2023-04-23T14:39:35.444Z,23.70
2023-04-23T14:42:21.103Z,23.70
2023-04-23T14:45:07.494Z,23.70
2023-04-23T14:47:54.922Z,23.70
2023-04-23T14:50:40.410Z,23.70
2023-04-23T14:53:26.039Z,23.80
2023-04-23T14:56:11.784Z,23.80
2023-04-23T14:58:57.671Z,23.80
2023-04-23T15:01:43.946Z,23.80
2023-04-23T15:04:29.980Z,23.80
2023-04-23T15:07:15.505Z,23.80
2023-04-23T15:10:06.308Z,23.80
2023-04-23T15:13:09.401Z,23.80
2023-04-23T15:16:02.861Z,23.80
2023-04-23T15:18:48.542Z,23.90
2023-04-23T15:21:34.009Z,23.80
2023-04-23T15:24:19.683Z,23.80
2023-04-23T15:27:05.773Z,23.90
2023-04-23T15:29:51.143Z,23.90
2023-04-23T15:32:37.022Z,23.80
2023-04-23T15:35:26.483Z,23.80
2023-04-23T15:38:12.014Z,23.70
2023-04-23T15:40:57.789Z,23.70
2023-04-23T15:43:43.510Z,23.60
2023-04-23T15:46:29.513Z,23.50
2023-04-23T15:49:15.167Z,23.40
2023-04-23T15:52:01.146Z,23.30
2023-04-23T15:54:46.719Z,23.20
2023-04-23T15:57:32.200Z,23.10
2023-04-23T16:00:18.827Z,23.20
2023-04-23T16:03:06.633Z,23.20
2023-04-23T16:05:52.606Z,23.20
2023-04-23T16:08:38.520Z,23.20
2023-04-23T16:11:27.664Z,23.20
2023-04-23T16:14:13.431Z,23.20
2023-04-23T16:16:59.207Z,23.20
2023-04-23T16:19:45.117Z,23.10
2023-04-23T16:22:30.835Z,23.10
2023-04-23T16:25:16.593Z,23.00
2023-04-23T16:28:02.328Z,22.90
2023-04-23T16:30:47.867Z,22.80
2023-04-23T16:33:33.396Z,22.70
2023-04-23T16:36:19.921Z,22.60
2023-04-23T16:39:05.555Z,22.50
2023-04-23T16:41:51.594Z,22.40
2023-04-23T16:44:37.063Z,22.40
2023-04-23T16:47:22.910Z,22.30
2023-04-23T16:50:08.663Z,22.20
2023-04-23T16:52:54.143Z,22.20
2023-04-23T16:55:40.116Z,22.10
2023-04-23T16:58:25.613Z,22.10
2023-04-23T17:01:11.672Z,22.10
2023-04-23T17:03:57.328Z,22.00
2023-04-23T17:06:42.883Z,22.00
2023-04-23T17:09:29.062Z,21.90
2023-04-23T17:12:14.847Z,21.80
2023-04-23T17:15:00.960Z,21.80
2023-04-23T17:17:46.576Z,21.70
2023-04-23T17:20:35.310Z,21.70
2023-04-23T17:23:20.828Z,21.60
2023-04-23T17:26:06.841Z,21.60
2023-04-23T17:28:52.350Z,21.50
2023-04-23T17:31:38.629Z,21.40
2023-04-23T17:34:24.241Z,21.30
2023-04-23T17:37:10.027Z,21.30
2023-04-23T17:39:55.953Z,21.20
2023-04-23T17:42:41.748Z,21.10
2023-04-23T17:45:27.265Z,21.10
2023-04-23T17:48:15.034Z,21.00
2023-04-23T17:51:01.967Z,20.90
2023-04-23T17:53:48.695Z,20.90
2023-04-23T17:56:34.655Z,20.90
2023-04-23T17:59:20.155Z,20.80
2023-04-23T18:02:06.242Z,20.70
2023-04-23T18:04:51.680Z,20.70
2023-04-23T18:07:37.719Z,20.60
2023-04-23T18:10:23.403Z,20.60
2023-04-23T18:13:11.551Z,20.50
2023-04-23T18:15:56.986Z,20.50
2023-04-23T18:18:42.998Z,20.40
2023-04-23T18:21:29.302Z,20.40
2023-04-23T18:24:18.287Z,20.30
2023-04-23T18:27:04.335Z,20.30
2023-04-23T18:29:49.654Z,20.20
2023-04-23T18:32:39.988Z,20.20
2023-04-23T18:35:26.480Z,20.20
2023-04-23T18:38:23.192Z,20.10
2023-04-23T18:41:09.111Z,20.10
2023-04-23T18:43:54.855Z,20.00
2023-04-23T18:46:40.772Z,19.90
2023-04-23T18:49:29.297Z,19.90
2023-04-23T18:52:15.055Z,19.80
2023-04-23T18:55:00.793Z,19.80
2023-04-23T18:57:46.718Z,19.80
2023-04-23T19:00:32.499Z,19.70
2023-04-23T19:03:25.958Z,19.70
2023-04-23T19:06:12.077Z,19.70
2023-04-23T19:09:07.468Z,19.70
2023-04-23T19:11:54.110Z,19.60
2023-04-23T19:14:39.676Z,19.60
2023-04-23T19:17:25.477Z,19.60
2023-04-23T19:20:12.872Z,19.50
2023-04-23T19:22:58.576Z,19.50
2023-04-23T19:25:44.385Z,19.50
2023-04-23T19:28:30.382Z,19.40
2023-04-23T19:31:17.311Z,19.40
2023-04-23T19:34:03.001Z,19.40
2023-04-23T19:36:48.786Z,19.30
2023-04-23T19:39:34.665Z,19.30
2023-04-23T19:42:21.898Z,19.30
2023-04-23T19:45:07.844Z,19.30
2023-04-23T19:47:53.470Z,19.30
2023-04-23T19:50:39.019Z,19.20
2023-04-23T19:53:25.742Z,19.20
2023-04-23T19:56:13.228Z,19.20
2023-04-23T19:58:58.929Z,19.10
2023-04-23T20:01:44.697Z,19.10
2023-04-23T20:04:30.674Z,19.10
2023-04-23T20:07:17.036Z,19.10
2023-04-23T20:10:02.877Z,19.10
2023-04-23T20:12:48.454Z,19.00
2023-04-23T20:15:34.171Z,19.00
2023-04-23T20:18:20.042Z,19.10
2023-04-23T20:21:06.335Z,19.00
2023-04-23T20:23:51.819Z,19.00
2023-04-23T20:26:38.222Z,19.00
2023-04-23T20:29:23.762Z,18.90
2023-04-23T20:32:09.282Z,18.90
2023-04-23T20:34:54.744Z,18.90
2023-04-23T20:37:41.271Z,18.90
2023-04-23T20:40:27.085Z,18.90
2023-04-23T20:43:13.584Z,18.80
2023-04-23T20:46:00.072Z,18.80
2023-04-23T20:48:45.912Z,18.80
2023-04-23T20:51:34.550Z,18.80
2023-04-23T20:54:20.369Z,18.70
2023-04-23T20:57:06.314Z,18.70
2023-04-23T20:59:51.733Z,18.60
2023-04-23T21:02:38.135Z,18.50
2023-04-23T21:05:23.595Z,18.50
2023-04-23T21:08:09.271Z,18.40
2023-04-23T21:10:55.338Z,18.40
2023-04-23T21:13:41.139Z,18.30
2023-04-23T21:16:27.329Z,18.30
2023-04-23T21:19:12.927Z,18.40
2023-04-23T21:22:01.822Z,18.40
2023-04-23T21:24:47.183Z,18.40
2023-04-23T21:27:33.047Z,18.40
2023-04-23T21:30:33.047Z,18.40
2023-04-23T21:33:19.356Z,18.30
2023-04-23T21:36:05.075Z,18.20
2023-04-23T21:38:50.623Z,18.20
2023-04-23T21:41:36.164Z,18.20
2023-04-23T21:44:22.048Z,18.20
2023-04-23T21:47:07.789Z,18.10
2023-04-23T21:49:54.911Z,18.10
2023-04-23T21:52:42.946Z,18.10
2023-04-23T21:55:29.397Z,18.00
2023-04-23T21:58:17.808Z,18.00
2023-04-23T22:01:04.070Z,17.90
2023-04-23T22:03:51.048Z,17.90
2023-04-23T22:06:36.916Z,17.80
2023-04-23T22:09:23.217Z,17.80
2023-04-23T22:12:08.870Z,17.80
2023-04-23T22:14:54.602Z,17.80
2023-04-23T22:17:40.725Z,17.80
2023-04-23T22:20:27.163Z,17.70
2023-04-23T22:23:12.713Z,17.70
2023-04-23T22:25:58.218Z,17.70
2023-04-23T22:28:44.186Z,17.90
2023-04-23T22:31:29.733Z,18.00
2023-04-23T22:34:15.475Z,17.90
2023-04-23T22:37:01.387Z,17.90
2023-04-23T22:39:47.058Z,17.90
2023-04-23T22:42:32.783Z,17.80
2023-04-23T22:45:18.637Z,17.80
2023-04-23T22:48:04.413Z,17.70
2023-04-23T22:50:50.959Z,17.70
2023-04-23T22:53:36.604Z,17.70
2023-04-23T22:56:22.203Z,17.70
2023-04-23T22:59:08.160Z,17.70
2023-04-23T23:01:53.790Z,17.50
2023-04-23T23:04:39.415Z,17.40
2023-04-23T23:07:24.803Z,17.60
2023-04-23T23:10:10.787Z,17.50
2023-04-23T23:12:56.500Z,17.50
2023-04-23T23:15:42.241Z,17.40
2023-04-23T23:18:27.980Z,17.50
2023-04-23T23:21:13.766Z,17.50
2023-04-23T23:23:59.524Z,17.50
2023-04-23T23:26:45.266Z,17.60
2023-04-23T23:29:30.889Z,17.60
2023-04-23T23:32:16.663Z,17.60
2023-04-23T23:35:02.648Z,17.50
2023-04-23T23:37:48.021Z,17.60
2023-04-23T23:40:33.954Z,17.60
2023-04-23T23:43:19.531Z,17.60
2023-04-23T23:46:05.319Z,17.50
2023-04-23T23:48:51.084Z,17.50
2023-04-23T23:51:36.779Z,17.50
2023-04-23T23:54:22.474Z,17.50
2023-04-23T23:57:08.203Z,17.50
2023-04-23T23:59:53.832Z,17.50
